アシガバート の空港の天気 - METARとTAF

アシガバート空港 ( UTAA / ASB ) - トルクメニスタン アシガバート
飛行場実況気象(Metar)
観測時間10/15 22:00 TMT (10/15 17:00 UTC)
風向・風速東南東 5m/s
視程10km以上
天気現象
なし
気温15℃
湿度36%
気圧1022hPa
METARUTAA 151700Z 11010KT 9999 NSC 15/00 Q1022 R88/70D NOSIG
過去の天気等 Google飛行場航空写真 Wunderground天気予報

過去48時間のMETAR

飛行場予報(TAF)
発表時間: 10/15 15:50 TMT (10/15 10:50 UTC)
予報対象時間: 15日17時 TMT ~ 16日17時 TMT
風向・風速東 8m/s
視程6000m
全天の4割程度の雲 雲底高度 1520m
15日17時 TMT ~ 15日19時 TMT に一時的に
風向・風速東 6m/s 瞬間風速 11m/s
視程3000m
天気現象低い風塵
15日21時 TMT ~ 16日7時 TMT に一時的に
風向・風速南東 7m/s
TAF UTAA 151050Z 1512/1612 10016KT 6000 SCT050
TEMPO 1512/1514 08012G22KT 3000 DRDU
TEMPO 1516/1602 13014KT